createdAt,value
2023-05-09T00:00:06.445Z,2.50
2023-05-09T00:01:13.062Z,4.00
2023-05-09T00:02:14.971Z,5.05
2023-05-09T00:03:16.893Z,2.58
2023-05-09T00:04:19.731Z,4.13
2023-05-09T00:05:21.877Z,2.40
2023-05-09T00:06:23.688Z,2.20
2023-05-09T00:07:25.710Z,2.80
2023-05-09T00:08:27.932Z,4.32
2023-05-09T00:09:29.735Z,2.35
2023-05-09T00:10:31.534Z,3.25
2023-05-09T00:11:33.483Z,3.67
2023-05-09T00:12:35.700Z,2.15
2023-05-09T00:13:37.771Z,3.40
2023-05-09T00:14:40.786Z,2.53
2023-05-09T00:15:42.580Z,2.25
2023-05-09T00:16:47.356Z,4.20
2023-05-09T00:17:50.706Z,2.67
2023-05-09T00:18:52.910Z,3.63
2023-05-09T00:19:55.519Z,2.30
2023-05-09T00:20:57.764Z,2.67
2023-05-09T00:21:59.632Z,1.55
2023-05-09T00:23:01.421Z,3.05
2023-05-09T00:24:03.211Z,2.53
2023-05-09T00:25:06.743Z,2.55
2023-05-09T00:26:09.530Z,2.40
2023-05-09T00:27:11.593Z,6.13
2023-05-09T00:28:13.432Z,3.67
2023-05-09T00:29:15.226Z,1.48
2023-05-09T00:30:17.409Z,1.85
2023-05-09T00:31:20.701Z,2.70
2023-05-09T00:32:22.799Z,1.67
2023-05-09T00:33:27.031Z,4.95
2023-05-09T00:34:29.012Z,4.03
2023-05-09T00:35:32.382Z,3.60
2023-05-09T00:36:34.217Z,2.17
2023-05-09T00:37:35.999Z,3.20
2023-05-09T00:38:38.304Z,2.63
2023-05-09T00:39:40.114Z,4.03
2023-05-09T00:40:41.907Z,2.90
2023-05-09T00:41:43.863Z,2.22
2023-05-09T00:42:45.918Z,3.42
2023-05-09T00:43:47.744Z,3.03
2023-05-09T00:44:49.621Z,4.72
2023-05-09T00:45:51.876Z,1.73
2023-05-09T00:46:53.734Z,2.47
2023-05-09T00:47:56.217Z,2.92
2023-05-09T00:48:58.141Z,2.20
2023-05-09T00:50:00.408Z,3.38
2023-05-09T00:51:02.529Z,2.08
2023-05-09T00:52:05.565Z,1.98
2023-05-09T00:53:08.319Z,2.22
2023-05-09T00:54:10.321Z,3.17
2023-05-09T00:55:13.517Z,1.52
2023-05-09T00:56:15.800Z,1.70
2023-05-09T00:57:17.676Z,4.20
2023-05-09T00:58:19.486Z,2.63
2023-05-09T00:59:22.056Z,3.67
2023-05-09T01:00:23.886Z,3.20
2023-05-09T01:01:26.214Z,3.03
2023-05-09T01:02:28.270Z,2.15
2023-05-09T01:03:31.402Z,2.55
2023-05-09T01:04:33.707Z,2.72
2023-05-09T01:05:47.660Z,2.20
2023-05-09T01:07:04.170Z,2.05
2023-05-09T01:08:44.868Z,2.92
2023-05-09T01:10:35.732Z,2.13
2023-05-09T01:12:30.219Z,2.22
2023-05-09T01:14:04.389Z,3.30
2023-05-09T01:15:15.257Z,1.83
2023-05-09T01:16:31.350Z,6.22
2023-05-09T01:17:52.152Z,3.88
2023-05-09T01:19:22.963Z,1.95
2023-05-09T01:20:36.346Z,4.13
2023-05-09T01:21:43.976Z,3.97
2023-05-09T01:22:52.782Z,4.43
2023-05-09T01:24:23.576Z,2.40
2023-05-09T01:25:55.549Z,2.17
2023-05-09T01:27:19.533Z,4.47
2023-05-09T01:28:58.789Z,2.15
2023-05-09T01:30:03.453Z,3.25
2023-05-09T01:31:08.969Z,5.28
2023-05-09T01:32:16.029Z,4.00
2023-05-09T01:33:20.459Z,3.15
2023-05-09T01:34:26.449Z,2.85
2023-05-09T01:35:31.546Z,2.58
2023-05-09T01:36:36.424Z,4.30
2023-05-09T01:37:42.415Z,2.10
2023-05-09T01:38:50.679Z,2.75
2023-05-09T01:39:56.374Z,3.47
2023-05-09T01:40:59.927Z,3.03
2023-05-09T01:42:03.799Z,4.03
2023-05-09T01:43:08.561Z,3.63
2023-05-09T01:44:13.706Z,4.80
2023-05-09T01:45:17.309Z,5.60
2023-05-09T01:46:20.683Z,4.88
2023-05-09T01:47:23.543Z,2.97
2023-05-09T01:48:28.163Z,2.67
2023-05-09T01:49:32.742Z,3.58
2023-05-09T01:50:35.992Z,4.55
2023-05-09T01:51:40.788Z,4.50
2023-05-09T01:52:48.052Z,7.05
2023-05-09T01:53:52.917Z,3.63
2023-05-09T01:54:55.798Z,2.55
2023-05-09T01:55:59.344Z,3.95
2023-05-09T01:57:03.202Z,5.32
2023-05-09T01:58:06.294Z,3.55
2023-05-09T01:59:08.403Z,3.85
2023-05-09T02:00:13.310Z,3.08
2023-05-09T02:01:16.206Z,4.28
2023-05-09T02:02:18.651Z,3.45
2023-05-09T02:03:22.024Z,3.65
2023-05-09T02:04:25.065Z,3.13
2023-05-09T02:05:29.625Z,5.35
2023-05-09T02:06:32.754Z,6.00
2023-05-09T02:07:35.163Z,2.60
2023-05-09T02:08:37.228Z,2.83
2023-05-09T02:09:39.126Z,4.70
2023-05-09T02:10:41.902Z,2.75
2023-05-09T02:11:43.701Z,5.70
2023-05-09T02:12:45.512Z,2.35
2023-05-09T02:13:47.433Z,3.33
2023-05-09T02:14:49.741Z,2.45
2023-05-09T02:15:52.251Z,3.40
2023-05-09T02:16:54.278Z,3.75
2023-05-09T02:17:56.739Z,3.83
2023-05-09T02:18:59.075Z,3.25
2023-05-09T02:20:01.071Z,2.90
2023-05-09T02:21:04.047Z,2.42
2023-05-09T02:22:06.017Z,3.03
2023-05-09T02:23:08.357Z,3.35
2023-05-09T02:24:10.293Z,3.88
2023-05-09T02:25:16.647Z,1.95
2023-05-09T02:26:19.123Z,2.55
2023-05-09T02:27:21.808Z,2.83
2023-05-09T02:28:27.455Z,3.80
2023-05-09T02:29:40.807Z,2.17
2023-05-09T02:30:45.839Z,5.35
2023-05-09T02:31:50.274Z,3.97
2023-05-09T02:32:56.989Z,4.35
2023-05-09T02:33:59.538Z,3.80
2023-05-09T02:35:04.139Z,2.90
2023-05-09T02:36:06.675Z,2.28
2023-05-09T02:37:10.424Z,4.40
2023-05-09T02:38:13.733Z,3.00
2023-05-09T02:39:16.155Z,3.20
2023-05-09T02:40:19.281Z,2.22
2023-05-09T02:41:21.914Z,3.15
2023-05-09T02:42:25.544Z,5.05
2023-05-09T02:43:27.351Z,3.25
2023-05-09T02:44:30.175Z,3.88
2023-05-09T02:45:32.236Z,4.45
2023-05-09T02:46:34.261Z,2.75
2023-05-09T02:47:36.236Z,4.47
2023-05-09T02:48:38.110Z,2.40
2023-05-09T02:49:40.327Z,3.10
2023-05-09T02:50:42.952Z,5.28
2023-05-09T02:51:44.796Z,3.72
2023-05-09T02:52:46.626Z,2.35
2023-05-09T02:53:48.605Z,3.97
2023-05-09T02:54:50.657Z,2.15
2023-05-09T02:55:53.961Z,2.45
2023-05-09T02:56:56.073Z,3.53
2023-05-09T02:58:12.029Z,3.92
2023-05-09T02:59:18.682Z,4.05
2023-05-09T03:00:21.728Z,2.95
2023-05-09T03:01:23.638Z,3.40
2023-05-09T03:02:26.151Z,2.92
2023-05-09T03:03:29.002Z,2.20
2023-05-09T03:04:31.613Z,4.43
2023-05-09T03:05:34.266Z,2.13
2023-05-09T03:06:36.550Z,1.95
2023-05-09T03:07:38.614Z,2.65
2023-05-09T03:08:40.672Z,1.85
2023-05-09T03:09:43.433Z,2.40
2023-05-09T03:10:46.128Z,2.65
2023-05-09T03:11:48.395Z,3.30
2023-05-09T03:12:50.290Z,3.03
2023-05-09T03:13:52.079Z,3.45
2023-05-09T03:14:53.876Z,2.42
2023-05-09T03:15:55.891Z,2.58
2023-05-09T03:16:57.679Z,3.53
2023-05-09T03:18:04.938Z,3.05
2023-05-09T03:19:07.142Z,2.00
2023-05-09T03:20:10.427Z,3.13
2023-05-09T03:21:12.838Z,2.85
2023-05-09T03:22:15.813Z,2.35
2023-05-09T03:23:34.993Z,1.83
2023-05-09T03:24:37.642Z,2.50
2023-05-09T03:25:39.416Z,3.65
2023-05-09T03:26:41.399Z,1.70
2023-05-09T03:27:43.205Z,1.63
2023-05-09T03:28:49.045Z,2.28
2023-05-09T03:29:51.099Z,2.00
2023-05-09T03:30:54.301Z,1.95
2023-05-09T03:31:59.509Z,1.50
2023-05-09T03:33:01.394Z,3.30
2023-05-09T03:34:03.209Z,2.58
2023-05-09T03:35:05.343Z,2.67
2023-05-09T03:36:08.737Z,2.63
2023-05-09T03:37:11.094Z,1.58
2023-05-09T03:38:15.183Z,2.83
2023-05-09T03:39:17.010Z,2.03
2023-05-09T03:40:21.690Z,2.47
2023-05-09T03:41:37.671Z,2.60
2023-05-09T03:42:40.610Z,3.40
2023-05-09T03:43:42.412Z,3.35
2023-05-09T03:44:44.252Z,4.07
2023-05-09T03:45:46.303Z,5.68
2023-05-09T03:46:50.246Z,3.92
2023-05-09T03:47:52.350Z,2.15
2023-05-09T03:48:54.168Z,4.25
2023-05-09T03:49:56.254Z,1.60
2023-05-09T03:50:58.860Z,2.55
2023-05-09T03:52:03.800Z,1.88
2023-05-09T03:53:06.524Z,3.45
2023-05-09T03:54:12.330Z,4.63
2023-05-09T03:55:14.955Z,2.72
2023-05-09T03:56:16.948Z,3.38
2023-05-09T03:57:24.418Z,2.40
2023-05-09T03:58:28.474Z,3.95
2023-05-09T03:59:31.000Z,4.13
2023-05-09T04:00:33.104Z,4.80
2023-05-09T04:01:42.486Z,3.00
2023-05-09T04:02:44.804Z,2.63
2023-05-09T04:03:57.639Z,4.70
2023-05-09T04:05:01.248Z,4.03
2023-05-09T04:06:03.318Z,5.75
2023-05-09T04:07:09.807Z,4.20
2023-05-09T04:08:11.733Z,3.25
2023-05-09T04:09:13.735Z,5.13
2023-05-09T04:10:17.085Z,4.55
2023-05-09T04:11:20.045Z,4.72
2023-05-09T04:12:23.154Z,3.60
2023-05-09T04:13:25.927Z,7.28
2023-05-09T04:14:28.172Z,4.93
2023-05-09T04:15:29.949Z,4.63
2023-05-09T04:16:33.415Z,4.00
2023-05-09T04:17:35.395Z,5.63
2023-05-09T04:18:39.974Z,5.97
2023-05-09T04:19:41.799Z,6.53
2023-05-09T04:20:43.605Z,5.10
2023-05-09T04:21:46.190Z,4.88
2023-05-09T04:22:48.099Z,7.53
2023-05-09T04:23:51.530Z,3.22
2023-05-09T04:24:58.334Z,2.85
2023-05-09T04:26:00.242Z,4.60
2023-05-09T04:27:02.616Z,3.85
2023-05-09T04:28:04.891Z,8.23
2023-05-09T04:29:07.001Z,6.82
2023-05-09T04:30:10.468Z,6.22
2023-05-09T04:31:14.822Z,3.10
2023-05-09T04:32:20.944Z,5.72
2023-05-09T04:33:24.232Z,4.70
2023-05-09T04:34:27.838Z,3.83
2023-05-09T04:35:31.182Z,5.15
2023-05-09T04:36:34.047Z,4.15
2023-05-09T04:37:36.032Z,2.65
2023-05-09T04:38:38.223Z,2.85
2023-05-09T04:39:44.341Z,5.32
2023-05-09T04:40:54.936Z,4.38
2023-05-09T04:41:56.696Z,8.73
2023-05-09T04:42:59.045Z,7.50
2023-05-09T04:44:03.821Z,5.97
2023-05-09T04:45:06.318Z,4.40
2023-05-09T04:46:08.454Z,8.57
2023-05-09T04:47:10.768Z,10.75
2023-05-09T04:48:12.876Z,7.30
2023-05-09T04:49:14.669Z,7.90
2023-05-09T04:50:17.107Z,6.15
2023-05-09T04:51:19.149Z,8.00
2023-05-09T04:52:20.995Z,6.07
2023-05-09T04:53:23.355Z,8.88
2023-05-09T04:54:26.118Z,5.25
2023-05-09T04:55:28.832Z,7.45
2023-05-09T04:56:31.602Z,5.63
2023-05-09T04:57:35.070Z,5.45
2023-05-09T04:58:39.496Z,5.47
2023-05-09T04:59:44.573Z,6.35
2023-05-09T05:00:49.444Z,5.88
2023-05-09T05:01:52.392Z,9.23
2023-05-09T05:02:55.848Z,5.72
2023-05-09T05:04:00.375Z,4.88
2023-05-09T05:05:10.993Z,4.32
2023-05-09T05:06:16.285Z,2.95
2023-05-09T05:07:18.106Z,5.20
2023-05-09T05:08:20.766Z,3.10
2023-05-09T05:09:23.519Z,4.85
2023-05-09T05:10:26.381Z,6.85
2023-05-09T05:11:36.590Z,4.03
2023-05-09T05:12:39.838Z,4.60
2023-05-09T05:13:45.530Z,5.97
2023-05-09T05:14:47.373Z,7.45
2023-05-09T05:15:53.504Z,6.80
2023-05-09T05:16:56.596Z,6.13
2023-05-09T05:17:59.257Z,9.13
2023-05-09T05:19:05.363Z,6.05
2023-05-09T05:20:11.712Z,11.70
2023-05-09T05:21:17.896Z,5.78
2023-05-09T05:22:20.390Z,8.00
2023-05-09T05:23:22.279Z,8.25
2023-05-09T05:24:27.731Z,4.47
2023-05-09T05:25:31.356Z,3.88
2023-05-09T05:26:35.068Z,3.45
2023-05-09T05:27:37.059Z,6.38
2023-05-09T05:28:39.284Z,6.20
2023-05-09T05:29:41.615Z,4.97
2023-05-09T05:30:43.450Z,8.15
2023-05-09T05:31:45.305Z,4.50
2023-05-09T05:32:47.411Z,6.40
2023-05-09T05:33:52.180Z,3.75
2023-05-09T05:34:55.361Z,3.85
2023-05-09T05:35:57.366Z,4.47
2023-05-09T05:36:59.202Z,8.70
2023-05-09T05:38:01.205Z,7.47
2023-05-09T05:39:03.599Z,3.58
2023-05-09T05:40:06.483Z,4.57
2023-05-09T05:41:11.968Z,7.35
2023-05-09T05:42:15.772Z,3.95
2023-05-09T05:43:18.887Z,2.38
2023-05-09T05:44:21.140Z,3.50
2023-05-09T05:45:23.119Z,4.35
2023-05-09T05:46:28.370Z,4.53
2023-05-09T05:47:33.209Z,12.00
2023-05-09T05:48:35.574Z,4.63
2023-05-09T05:49:37.333Z,9.27
2023-05-09T05:50:39.395Z,4.55
2023-05-09T05:51:41.209Z,4.28
2023-05-09T05:52:44.432Z,2.28
2023-05-09T05:53:49.465Z,5.40
2023-05-09T05:54:51.399Z,5.20
2023-05-09T05:55:53.343Z,4.05
2023-05-09T05:56:56.244Z,4.43
2023-05-09T05:57:58.074Z,9.57
2023-05-09T05:59:00.261Z,16.33
2023-05-09T06:00:05.818Z,12.95
2023-05-09T06:01:15.363Z,6.72
2023-05-09T06:02:18.548Z,4.72
2023-05-09T06:03:21.422Z,7.07
2023-05-09T06:04:32.777Z,6.63
2023-05-09T06:05:34.780Z,7.97
2023-05-09T06:06:36.988Z,8.18
2023-05-09T06:07:41.122Z,5.22
2023-05-09T06:08:43.881Z,3.05
2023-05-09T06:09:45.718Z,6.05
2023-05-09T06:10:47.712Z,4.00
2023-05-09T06:11:49.509Z,2.45
2023-05-09T06:12:51.347Z,4.00
2023-05-09T06:13:53.171Z,4.00
2023-05-09T06:14:54.949Z,5.70
2023-05-09T06:16:02.051Z,6.05
2023-05-09T06:17:10.085Z,3.00
2023-05-09T06:18:12.067Z,2.67
2023-05-09T06:19:13.871Z,2.78
2023-05-09T06:20:15.843Z,4.25
2023-05-09T06:21:17.757Z,4.13
2023-05-09T06:22:19.540Z,2.45
2023-05-09T06:23:22.198Z,2.08
2023-05-09T06:24:35.231Z,1.90
2023-05-09T06:25:38.644Z,5.93
2023-05-09T06:26:41.980Z,3.72
2023-05-09T06:27:44.743Z,4.10
2023-05-09T06:28:46.504Z,4.13
2023-05-09T06:29:48.350Z,3.13
2023-05-09T06:30:50.400Z,2.30
2023-05-09T06:31:52.702Z,4.00
2023-05-09T06:32:55.333Z,1.55
2023-05-09T06:33:57.336Z,2.65
2023-05-09T06:34:59.218Z,1.88
2023-05-09T06:36:00.982Z,1.60
2023-05-09T06:37:03.323Z,1.77
2023-05-09T06:38:05.206Z,1.30
2023-05-09T06:39:07.094Z,4.25
2023-05-09T06:40:09.340Z,3.15
2023-05-09T06:41:11.251Z,3.05
2023-05-09T06:42:13.009Z,3.25
2023-05-09T06:43:14.946Z,1.50
2023-05-09T06:44:16.719Z,2.03
2023-05-09T06:45:18.942Z,1.40
2023-05-09T06:46:20.928Z,2.17
2023-05-09T06:47:22.727Z,1.70
2023-05-09T06:48:24.715Z,1.05
2023-05-09T06:49:26.545Z,1.48
2023-05-09T06:50:28.871Z,3.50
2023-05-09T06:51:32.074Z,9.68
2023-05-09T06:52:33.904Z,4.43
2023-05-09T06:53:35.703Z,5.93
2023-05-09T06:54:37.484Z,2.15
2023-05-09T06:55:39.256Z,4.55
2023-05-09T06:56:41.401Z,2.08
2023-05-09T06:57:43.358Z,3.33
2023-05-09T06:58:45.180Z,2.95
2023-05-09T06:59:47.160Z,1.15
2023-05-09T07:00:49.195Z,4.32
2023-05-09T07:01:51.016Z,2.53
2023-05-09T07:02:52.951Z,3.30
2023-05-09T07:03:54.898Z,1.73
2023-05-09T07:04:56.675Z,1.80
2023-05-09T07:06:00.130Z,2.30
2023-05-09T07:07:02.153Z,2.25
2023-05-09T07:08:04.209Z,2.80
2023-05-09T07:09:06.103Z,2.45
2023-05-09T07:10:11.881Z,1.48
2023-05-09T07:11:14.343Z,2.33
2023-05-09T07:12:16.256Z,1.83
2023-05-09T07:13:18.156Z,2.80
2023-05-09T07:14:20.600Z,1.70
2023-05-09T07:15:36.789Z,1.42
2023-05-09T07:16:42.869Z,1.80
2023-05-09T07:17:44.786Z,2.00
2023-05-09T07:18:46.684Z,0.93
2023-05-09T07:19:48.613Z,1.92
2023-05-09T07:20:51.025Z,1.02
2023-05-09T07:21:52.841Z,1.80
2023-05-09T07:22:54.763Z,1.45
2023-05-09T07:23:56.659Z,2.40
2023-05-09T07:24:58.709Z,1.40
2023-05-09T07:26:01.415Z,1.17
2023-05-09T07:27:03.947Z,1.58
2023-05-09T07:28:05.927Z,1.00
2023-05-09T07:29:07.823Z,1.67
2023-05-09T07:30:10.153Z,2.35
2023-05-09T07:31:12.016Z,1.98
2023-05-09T07:32:13.979Z,1.00
2023-05-09T07:33:15.854Z,2.33
2023-05-09T07:34:19.899Z,0.68
2023-05-09T07:35:21.933Z,0.68
2023-05-09T07:36:23.721Z,1.63
2023-05-09T07:37:25.643Z,2.88
2023-05-09T07:38:27.426Z,1.48
2023-05-09T07:39:29.200Z,0.75
2023-05-09T07:40:31.854Z,1.27
2023-05-09T07:41:33.705Z,2.25
2023-05-09T07:42:35.691Z,0.90
2023-05-09T07:43:37.506Z,1.50
2023-05-09T07:44:39.320Z,1.38
2023-05-09T07:45:41.008Z,1.88
2023-05-09T07:46:42.996Z,1.77
2023-05-09T07:47:44.935Z,1.17
2023-05-09T07:48:46.792Z,1.98
2023-05-09T07:49:48.656Z,1.73
2023-05-09T07:50:50.782Z,3.20
2023-05-09T07:51:52.738Z,1.27
2023-05-09T07:52:55.693Z,0.77
2023-05-09T07:53:57.510Z,2.35
2023-05-09T07:54:59.333Z,6.65
2023-05-09T07:56:01.122Z,3.42
2023-05-09T07:57:02.999Z,2.58
2023-05-09T07:58:04.833Z,1.92
2023-05-09T07:59:06.614Z,1.67
2023-05-09T08:00:09.066Z,2.88
2023-05-09T08:01:16.725Z,3.22
2023-05-09T08:02:18.852Z,1.45
2023-05-09T08:03:21.003Z,3.13
2023-05-09T08:04:22.959Z,5.10
2023-05-09T08:05:24.849Z,5.18
2023-05-09T08:06:26.777Z,1.70
2023-05-09T08:07:28.558Z,2.70
2023-05-09T08:08:30.472Z,3.03
2023-05-09T08:09:32.438Z,0.82
2023-05-09T08:10:34.834Z,4.03
2023-05-09T08:11:36.973Z,2.25
2023-05-09T08:12:39.638Z,3.17
2023-05-09T08:13:41.621Z,1.55
2023-05-09T08:14:43.521Z,5.68
2023-05-09T08:15:45.613Z,1.98
2023-05-09T08:16:47.466Z,2.10
2023-05-09T08:17:49.286Z,2.85
2023-05-09T08:18:51.214Z,2.17
2023-05-09T08:19:53.071Z,2.63
2023-05-09T08:20:54.907Z,3.45
2023-05-09T08:21:56.905Z,2.47
2023-05-09T08:22:58.678Z,1.80
2023-05-09T08:24:01.851Z,4.47
2023-05-09T08:25:03.690Z,3.22
2023-05-09T08:26:05.588Z,2.97
2023-05-09T08:27:07.384Z,4.03
2023-05-09T08:28:09.217Z,7.13
2023-05-09T08:29:11.505Z,3.47
2023-05-09T08:30:13.933Z,4.80
2023-05-09T08:31:15.953Z,7.40
2023-05-09T08:32:19.941Z,4.20
2023-05-09T08:33:21.720Z,3.10
2023-05-09T08:34:23.532Z,2.22
2023-05-09T08:35:25.541Z,4.60
2023-05-09T08:36:27.295Z,2.75
2023-05-09T08:37:29.165Z,3.30
2023-05-09T08:38:31.079Z,2.38
2023-05-09T08:39:34.931Z,2.00
2023-05-09T08:40:40.662Z,1.38
2023-05-09T08:41:43.252Z,3.60
2023-05-09T08:42:48.794Z,3.30
2023-05-09T08:43:50.697Z,3.58
2023-05-09T08:44:52.936Z,1.55
2023-05-09T08:46:00.689Z,1.15
2023-05-09T08:47:04.492Z,3.65
2023-05-09T08:48:07.064Z,1.63
2023-05-09T08:49:09.210Z,1.27
2023-05-09T08:50:11.971Z,2.53
2023-05-09T08:51:16.141Z,2.10
2023-05-09T08:52:18.569Z,2.35
2023-05-09T08:53:21.815Z,2.05
2023-05-09T08:54:25.107Z,1.75
2023-05-09T08:55:27.719Z,5.97
2023-05-09T08:56:31.284Z,3.13
2023-05-09T08:57:36.820Z,4.25
2023-05-09T08:58:39.159Z,2.28
2023-05-09T08:59:42.593Z,2.83
2023-05-09T09:00:45.330Z,4.20
2023-05-09T09:01:48.066Z,2.22
2023-05-09T09:02:50.449Z,5.10
2023-05-09T09:03:52.635Z,1.00
2023-05-09T09:04:55.270Z,1.80
2023-05-09T09:05:58.247Z,1.88
2023-05-09T09:07:01.261Z,2.72
2023-05-09T09:08:07.260Z,1.10
2023-05-09T09:09:09.317Z,3.50
2023-05-09T09:10:12.291Z,2.10
2023-05-09T09:11:16.175Z,7.55
2023-05-09T09:12:18.547Z,1.95
2023-05-09T09:13:21.183Z,2.30
2023-05-09T09:14:28.727Z,1.42
2023-05-09T09:15:35.947Z,1.70
2023-05-09T09:16:38.625Z,1.48
2023-05-09T09:17:42.949Z,2.22
2023-05-09T09:18:45.897Z,1.45
2023-05-09T09:19:50.380Z,1.10
2023-05-09T09:21:07.268Z,2.22
2023-05-09T09:22:13.902Z,2.83
2023-05-09T09:23:19.946Z,4.80
2023-05-09T09:24:23.321Z,4.18
2023-05-09T09:25:25.158Z,3.13
2023-05-09T09:26:29.364Z,1.75
2023-05-09T09:27:32.129Z,1.25
2023-05-09T09:28:34.252Z,2.42
2023-05-09T09:29:36.160Z,2.08
2023-05-09T09:30:44.044Z,1.10
2023-05-09T09:31:46.834Z,4.07
2023-05-09T09:32:48.816Z,1.80
2023-05-09T09:33:51.631Z,1.13
2023-05-09T09:35:07.029Z,2.97
2023-05-09T09:36:09.145Z,1.65
2023-05-09T09:37:22.563Z,2.30
2023-05-09T09:38:24.898Z,4.63
2023-05-09T09:39:26.704Z,3.97
2023-05-09T09:40:28.663Z,1.98
2023-05-09T09:41:40.024Z,3.15
2023-05-09T09:42:47.349Z,2.10
2023-05-09T09:43:49.137Z,2.17
2023-05-09T09:45:02.388Z,1.50
2023-05-09T09:46:05.212Z,1.30
2023-05-09T09:47:10.653Z,1.05
2023-05-09T09:48:12.457Z,2.10
2023-05-09T09:49:15.811Z,1.50
2023-05-09T09:50:19.571Z,1.15
2023-05-09T09:51:21.634Z,1.13
2023-05-09T09:52:27.288Z,0.95
2023-05-09T09:53:32.023Z,2.40
2023-05-09T09:54:34.015Z,1.75
2023-05-09T09:55:35.936Z,1.05
2023-05-09T09:56:42.889Z,0.90
2023-05-09T09:57:46.029Z,0.85
2023-05-09T09:58:47.980Z,1.50
2023-05-09T09:59:58.813Z,1.30
2023-05-09T10:01:13.976Z,0.57
2023-05-09T10:02:16.596Z,0.85
2023-05-09T10:03:18.532Z,1.05
2023-05-09T10:04:20.557Z,0.73
2023-05-09T10:05:28.034Z,1.23
2023-05-09T10:06:29.829Z,1.15
2023-05-09T10:07:33.885Z,1.90
2023-05-09T10:08:35.701Z,0.90
2023-05-09T10:09:41.030Z,3.80
2023-05-09T10:10:42.953Z,1.25
2023-05-09T10:11:48.501Z,0.90
2023-05-09T10:12:51.166Z,1.50
2023-05-09T10:13:53.245Z,0.60
2023-05-09T10:14:55.401Z,0.60
2023-05-09T10:15:58.411Z,0.77
2023-05-09T10:17:02.467Z,0.98
2023-05-09T10:18:05.731Z,1.75
2023-05-09T10:19:07.975Z,7.38
2023-05-09T10:20:12.649Z,2.35
2023-05-09T10:21:15.862Z,0.98
2023-05-09T10:22:19.366Z,0.65
2023-05-09T10:23:23.093Z,3.40
2023-05-09T10:24:51.392Z,1.42
2023-05-09T10:26:16.859Z,1.35
2023-05-09T10:27:23.033Z,0.93
2023-05-09T10:28:32.585Z,1.08
2023-05-09T10:29:39.476Z,1.10
2023-05-09T10:30:58.949Z,2.60
2023-05-09T10:32:08.410Z,3.90
2023-05-09T10:33:13.437Z,0.73
2023-05-09T10:34:16.040Z,0.95
2023-05-09T10:35:19.610Z,1.52
2023-05-09T10:36:23.988Z,1.90
2023-05-09T10:37:26.689Z,1.33
2023-05-09T10:38:29.023Z,1.67
2023-05-09T10:39:31.113Z,2.47
2023-05-09T10:40:34.786Z,4.25
2023-05-09T10:41:37.524Z,0.93
2023-05-09T10:42:39.530Z,0.63
2023-05-09T10:43:42.776Z,2.55
2023-05-09T10:44:45.195Z,1.08
2023-05-09T10:45:47.640Z,1.40
2023-05-09T10:46:49.788Z,0.60
2023-05-09T10:47:56.679Z,0.63
2023-05-09T10:48:59.339Z,1.02
2023-05-09T10:50:01.883Z,1.20
2023-05-09T10:51:04.434Z,3.42
2023-05-09T10:52:06.976Z,1.10
2023-05-09T10:53:19.829Z,2.95
2023-05-09T10:54:33.629Z,3.03
2023-05-09T10:55:47.801Z,1.35
2023-05-09T10:56:49.570Z,1.02
2023-05-09T10:57:55.064Z,1.17
2023-05-09T10:58:57.452Z,1.25
2023-05-09T11:00:00.595Z,1.65
2023-05-09T11:01:04.586Z,1.15
2023-05-09T11:02:12.764Z,1.05
2023-05-09T11:03:14.640Z,1.90
2023-05-09T11:04:17.302Z,3.60
2023-05-09T11:05:20.342Z,1.67
2023-05-09T11:06:44.830Z,2.35
2023-05-09T11:07:46.864Z,1.58
2023-05-09T11:08:48.638Z,1.75
2023-05-09T11:10:08.028Z,1.20
2023-05-09T11:11:25.759Z,0.80
2023-05-09T11:12:27.761Z,1.73
2023-05-09T11:13:37.694Z,1.02
2023-05-09T11:14:43.235Z,1.10
2023-05-09T11:16:04.445Z,2.13
2023-05-09T11:17:12.958Z,0.88
2023-05-09T11:18:15.266Z,1.48
2023-05-09T11:19:35.147Z,1.95
2023-05-09T11:20:43.563Z,1.00
2023-05-09T11:22:02.974Z,0.70
2023-05-09T11:23:06.949Z,1.25
2023-05-09T11:24:19.086Z,2.83
2023-05-09T11:25:28.116Z,0.80
2023-05-09T11:26:30.635Z,1.73
2023-05-09T11:27:45.480Z,1.27
2023-05-09T11:28:53.706Z,2.05
2023-05-09T11:29:59.871Z,1.38
2023-05-09T11:31:18.104Z,1.40
2023-05-09T11:32:22.057Z,2.28
2023-05-09T11:33:27.604Z,1.08
2023-05-09T11:34:29.863Z,3.47
2023-05-09T11:35:31.780Z,0.90
2023-05-09T11:36:33.997Z,2.08
2023-05-09T11:38:06.085Z,0.90
2023-05-09T11:39:10.179Z,0.82
2023-05-09T11:40:13.495Z,1.17
2023-05-09T11:41:15.935Z,2.47
2023-05-09T11:42:18.244Z,0.60
2023-05-09T11:43:20.132Z,0.63
2023-05-09T11:44:21.943Z,0.60
2023-05-09T11:45:26.888Z,1.48
2023-05-09T11:46:29.455Z,0.75
2023-05-09T11:47:31.447Z,0.70
2023-05-09T11:48:40.939Z,0.85
2023-05-09T11:49:45.704Z,1.15
2023-05-09T11:50:48.356Z,0.70
2023-05-09T11:51:50.260Z,0.90
2023-05-09T11:52:52.178Z,0.95
2023-05-09T11:53:54.202Z,0.80
2023-05-09T11:54:58.063Z,0.60
2023-05-09T11:56:04.218Z,1.15
2023-05-09T11:57:06.970Z,1.45
2023-05-09T11:58:09.672Z,3.25
2023-05-09T11:59:13.259Z,3.35
2023-05-09T12:00:20.779Z,1.13
2023-05-09T12:01:23.288Z,2.53
2023-05-09T12:02:25.199Z,0.88
2023-05-09T12:03:27.341Z,1.08
2023-05-09T12:04:31.998Z,1.60
2023-05-09T12:05:33.905Z,1.10
2023-05-09T12:06:36.369Z,1.70
2023-05-09T12:07:39.701Z,1.33
2023-05-09T12:08:41.617Z,0.82
2023-05-09T12:09:43.880Z,0.98
2023-05-09T12:10:45.671Z,0.80
2023-05-09T12:11:50.111Z,0.90
2023-05-09T12:12:55.585Z,0.82
2023-05-09T12:13:57.632Z,1.40
2023-05-09T12:15:04.271Z,1.95
2023-05-09T12:16:09.122Z,2.30
2023-05-09T12:17:11.062Z,1.17
2023-05-09T12:18:12.961Z,0.98
2023-05-09T12:19:15.191Z,2.17
2023-05-09T12:20:17.295Z,1.90
2023-05-09T12:21:20.087Z,1.30
2023-05-09T12:22:22.163Z,2.50
2023-05-09T12:23:23.937Z,2.50
2023-05-09T12:24:29.574Z,1.40
2023-05-09T12:25:31.426Z,2.10
2023-05-09T12:26:33.857Z,0.95
2023-05-09T12:27:37.009Z,1.92
2023-05-09T12:28:39.501Z,1.80
2023-05-09T12:29:45.940Z,2.00
2023-05-09T12:30:47.911Z,2.25
2023-05-09T12:31:51.049Z,1.05
2023-05-09T12:32:53.187Z,2.58
2023-05-09T12:33:55.523Z,2.17
2023-05-09T12:34:58.642Z,0.90
2023-05-09T12:36:09.614Z,1.95
2023-05-09T12:37:16.373Z,1.60
2023-05-09T12:38:22.691Z,2.33
2023-05-09T12:39:24.713Z,1.80
2023-05-09T12:40:26.953Z,1.25
2023-05-09T12:41:39.205Z,1.40
2023-05-09T12:42:45.122Z,0.80
2023-05-09T12:43:49.691Z,1.98
2023-05-09T12:44:51.592Z,3.88
2023-05-09T12:45:53.596Z,1.17
2023-05-09T12:47:04.968Z,1.48
2023-05-09T12:48:09.268Z,0.80
2023-05-09T12:49:21.784Z,1.98
2023-05-09T12:50:34.877Z,1.77
2023-05-09T12:51:36.789Z,1.95
2023-05-09T12:52:50.755Z,2.65
2023-05-09T12:54:04.702Z,2.42
2023-05-09T12:55:11.473Z,2.65
2023-05-09T12:56:23.474Z,1.95
2023-05-09T12:57:29.372Z,2.15
2023-05-09T12:58:33.638Z,3.10
2023-05-09T12:59:35.538Z,3.05
2023-05-09T13:00:46.180Z,1.95
2023-05-09T13:01:54.058Z,2.30
2023-05-09T13:02:56.079Z,1.33
2023-05-09T13:04:06.405Z,1.15
2023-05-09T13:05:13.250Z,2.75
2023-05-09T13:06:15.360Z,1.40
2023-05-09T13:07:17.169Z,2.40
2023-05-09T13:08:21.581Z,12.38
2023-05-09T13:09:25.288Z,6.82
2023-05-09T13:10:29.054Z,9.52
2023-05-09T13:11:30.866Z,5.97
2023-05-09T13:12:33.636Z,9.40
2023-05-09T13:13:35.466Z,4.25
2023-05-09T13:14:37.345Z,4.07
2023-05-09T13:15:39.237Z,6.32
2023-05-09T13:16:41.275Z,4.53
2023-05-09T13:17:43.107Z,4.45
2023-05-09T13:18:44.963Z,4.82
2023-05-09T13:19:47.018Z,2.65
2023-05-09T13:20:48.776Z,4.25
2023-05-09T13:21:50.632Z,3.15
2023-05-09T13:22:52.524Z,2.17
2023-05-09T13:23:54.515Z,2.88
2023-05-09T13:24:56.626Z,1.85
2023-05-09T13:25:58.412Z,1.67
2023-05-09T13:27:00.168Z,1.25
2023-05-09T13:28:02.150Z,4.53
2023-05-09T13:29:04.208Z,1.45
2023-05-09T13:30:09.468Z,1.95
2023-05-09T13:31:11.506Z,2.28
2023-05-09T13:32:13.439Z,2.45
2023-05-09T13:33:25.112Z,1.15
2023-05-09T13:34:28.378Z,1.15
2023-05-09T13:35:30.330Z,2.55
2023-05-09T13:36:32.620Z,1.20
2023-05-09T13:37:35.222Z,1.90
2023-05-09T13:38:40.413Z,1.70
2023-05-09T13:39:42.249Z,1.92
2023-05-09T13:40:44.051Z,1.38
2023-05-09T13:41:46.187Z,2.22
2023-05-09T13:42:49.008Z,1.50
2023-05-09T13:43:50.938Z,1.23
2023-05-09T13:44:52.714Z,1.20
2023-05-09T13:45:54.523Z,1.10
2023-05-09T13:46:58.368Z,1.08
2023-05-09T13:48:00.264Z,1.13
2023-05-09T13:49:02.242Z,0.93
2023-05-09T13:50:04.258Z,2.28
2023-05-09T13:51:07.838Z,1.33
2023-05-09T13:52:09.764Z,2.28
2023-05-09T13:53:11.578Z,0.85
2023-05-09T13:54:14.772Z,0.93
2023-05-09T13:55:16.634Z,1.58
2023-05-09T13:56:18.416Z,2.67
2023-05-09T13:57:20.446Z,1.35
2023-05-09T13:58:22.757Z,0.80
2023-05-09T13:59:24.661Z,0.85
2023-05-09T14:00:26.703Z,1.58
2023-05-09T14:01:28.678Z,1.80
2023-05-09T14:02:30.630Z,0.70
2023-05-09T14:03:32.490Z,1.00
2023-05-09T14:04:34.503Z,1.20
2023-05-09T14:05:36.751Z,1.25
2023-05-09T14:06:38.588Z,1.15
2023-05-09T14:07:40.759Z,1.10
2023-05-09T14:08:42.522Z,2.35
2023-05-09T14:09:44.460Z,1.52
2023-05-09T14:10:46.247Z,1.55
2023-05-09T14:11:52.402Z,1.95
2023-05-09T14:12:54.340Z,1.20
2023-05-09T14:13:56.261Z,1.25